createdAt,value
2022-09-26T00:02:17.997Z,10.15
2022-09-26T00:04:44.530Z,7.93
2022-09-26T00:07:10.965Z,4.38
2022-09-26T00:09:37.495Z,5.65
2022-09-26T00:12:04.221Z,5.53
2022-09-26T00:14:30.843Z,9.77
2022-09-26T00:16:58.020Z,6.85
2022-09-26T00:19:24.887Z,5.07
2022-09-26T00:21:51.338Z,8.80
2022-09-26T00:24:17.861Z,5.57
2022-09-26T00:26:44.560Z,11.25
2022-09-26T00:29:12.679Z,6.82
2022-09-26T00:31:42.457Z,6.47
2022-09-26T00:34:11.570Z,6.88
2022-09-26T00:36:39.009Z,6.47
2022-09-26T00:39:09.642Z,8.20
2022-09-26T00:41:37.607Z,4.65
2022-09-26T00:44:44.795Z,8.32
2022-09-26T00:48:01.524Z,6.43
2022-09-26T00:50:38.040Z,8.52
2022-09-26T00:53:13.522Z,4.55
2022-09-26T00:55:44.770Z,10.68
2022-09-26T00:58:11.135Z,8.20
2022-09-26T01:00:42.409Z,7.40
2022-09-26T01:03:09.298Z,5.40
2022-09-26T01:05:36.454Z,14.60
2022-09-26T01:08:04.223Z,6.82
2022-09-26T01:10:30.848Z,9.85
2022-09-26T01:12:57.863Z,5.03
2022-09-26T01:15:24.355Z,8.43
2022-09-26T01:17:51.155Z,8.50
2022-09-26T01:20:25.319Z,5.07
2022-09-26T01:23:29.847Z,6.40
2022-09-26T01:26:01.397Z,5.05
2022-09-26T01:28:53.050Z,7.38
2022-09-26T01:31:39.746Z,7.00
2022-09-26T01:34:17.303Z,8.43
2022-09-26T01:37:00.102Z,9.52
2022-09-26T01:39:32.280Z,8.85
2022-09-26T01:42:19.539Z,9.02
2022-09-26T01:45:10.724Z,10.82
2022-09-26T01:48:04.679Z,9.35
2022-09-26T01:50:39.746Z,7.68
2022-09-26T01:53:16.353Z,9.60
2022-09-26T01:55:49.931Z,8.18
2022-09-26T01:58:30.979Z,10.65
2022-09-26T02:01:00.903Z,8.07
2022-09-26T02:03:30.335Z,8.38
2022-09-26T02:06:04.228Z,7.88
2022-09-26T02:08:35.544Z,8.40
2022-09-26T02:11:09.881Z,7.68
2022-09-26T02:13:59.408Z,9.48
2022-09-26T02:16:30.896Z,9.82
2022-09-26T02:19:21.809Z,6.65
2022-09-26T02:21:48.831Z,5.57
2022-09-26T02:24:17.178Z,8.48
2022-09-26T02:26:43.674Z,10.93
2022-09-26T02:29:12.391Z,5.68
2022-09-26T02:31:43.055Z,7.22
2022-09-26T02:34:09.667Z,7.30
2022-09-26T02:36:36.557Z,6.72
2022-09-26T02:39:04.041Z,5.00
2022-09-26T02:41:43.824Z,8.82
2022-09-26T02:46:56.854Z,11.07
2022-09-26T02:49:29.385Z,6.50
2022-09-26T02:52:11.084Z,7.88
2022-09-26T02:54:55.853Z,8.75
2022-09-26T02:58:03.826Z,8.60
2022-09-26T03:00:53.470Z,8.23
2022-09-26T03:03:22.691Z,6.70
2022-09-26T03:05:51.712Z,7.55
2022-09-26T03:08:22.402Z,9.93
2022-09-26T03:10:50.043Z,9.85
2022-09-26T03:13:17.109Z,8.43
2022-09-26T03:15:46.935Z,9.75
2022-09-26T03:18:16.958Z,8.52
2022-09-26T03:20:44.550Z,10.20
2022-09-26T03:23:11.023Z,10.73
2022-09-26T03:25:38.107Z,11.93
2022-09-26T03:28:06.968Z,13.43
2022-09-26T03:30:33.689Z,10.63
2022-09-26T03:33:23.414Z,13.02
2022-09-26T03:35:49.985Z,12.38
2022-09-26T03:38:16.693Z,10.18
2022-09-26T03:40:49.732Z,10.65
2022-09-26T03:43:35.485Z,11.60
2022-09-26T03:46:04.508Z,11.18
2022-09-26T03:48:31.725Z,11.77
2022-09-26T03:51:06.307Z,13.93
2022-09-26T03:53:33.994Z,13.52
2022-09-26T03:56:09.137Z,10.38
2022-09-26T03:58:35.714Z,13.80
2022-09-26T04:01:08.056Z,14.60
2022-09-26T04:03:39.679Z,10.73
2022-09-26T04:06:10.553Z,10.63
2022-09-26T04:08:41.403Z,12.20
2022-09-26T04:11:11.348Z,15.88
2022-09-26T04:13:51.170Z,13.20
2022-09-26T04:16:22.490Z,15.35
2022-09-26T04:18:56.623Z,13.60
2022-09-26T04:21:26.904Z,12.77
2022-09-26T04:23:53.973Z,11.50
2022-09-26T04:26:23.735Z,15.75
2022-09-26T04:28:54.584Z,15.52
2022-09-26T04:31:24.377Z,14.87
2022-09-26T04:33:57.634Z,13.90
2022-09-26T04:36:24.228Z,13.90
2022-09-26T04:38:50.781Z,13.88
2022-09-26T04:41:20.449Z,13.00
2022-09-26T04:43:48.557Z,17.75
2022-09-26T04:46:22.834Z,14.25
2022-09-26T04:48:52.705Z,12.73
2022-09-26T04:51:22.642Z,17.83
2022-09-26T04:53:50.499Z,14.00
2022-09-26T04:56:27.770Z,15.88
2022-09-26T04:58:56.599Z,16.90
2022-09-26T05:01:26.692Z,19.15
2022-09-26T05:03:56.944Z,14.60
2022-09-26T05:06:23.898Z,14.75
2022-09-26T05:08:50.778Z,20.20
2022-09-26T05:11:22.916Z,17.48
2022-09-26T05:13:53.645Z,14.77
2022-09-26T05:16:21.410Z,14.90
2022-09-26T05:18:54.715Z,17.95
2022-09-26T05:21:23.456Z,14.73
2022-09-26T05:24:08.582Z,13.93
2022-09-26T05:26:41.683Z,20.55
2022-09-26T05:29:09.475Z,21.10
2022-09-26T05:31:56.074Z,16.10
2022-09-26T05:34:27.492Z,18.38
2022-09-26T05:36:54.118Z,14.10
2022-09-26T05:39:42.505Z,11.90
2022-09-26T05:42:12.278Z,19.52
2022-09-26T05:44:39.597Z,12.77
2022-09-26T05:47:07.194Z,14.48
2022-09-26T05:49:36.535Z,14.25
2022-09-26T05:52:03.943Z,12.30
2022-09-26T05:54:31.020Z,13.63
2022-09-26T05:56:58.692Z,13.70
2022-09-26T05:59:46.653Z,15.25
2022-09-26T06:02:33.451Z,15.80
2022-09-26T06:05:14.299Z,14.77
2022-09-26T06:08:01.686Z,15.68
2022-09-26T06:10:38.879Z,11.45
2022-09-26T06:13:06.215Z,12.95
2022-09-26T06:15:39.825Z,11.32
2022-09-26T06:18:06.312Z,11.88
2022-09-26T06:20:33.757Z,10.82
2022-09-26T06:23:01.709Z,12.98
2022-09-26T06:25:29.168Z,14.90
2022-09-26T06:28:00.224Z,13.07
2022-09-26T06:30:28.329Z,11.30
2022-09-26T06:35:37.473Z,10.25
2022-09-26T06:38:16.299Z,13.02
2022-09-26T06:40:42.836Z,16.13
2022-09-26T06:43:09.351Z,9.57
2022-09-26T06:45:54.226Z,12.13
2022-09-26T06:48:26.703Z,10.65
2022-09-26T06:51:05.442Z,13.23
2022-09-26T06:53:32.395Z,11.48
2022-09-26T06:55:59.612Z,10.63
2022-09-26T06:58:26.558Z,10.05
2022-09-26T07:00:56.636Z,10.73
2022-09-26T07:03:44.445Z,7.60
2022-09-26T07:06:26.986Z,9.38
2022-09-26T07:09:07.404Z,8.63
2022-09-26T07:12:10.081Z,7.40
2022-09-26T07:14:30.070Z,8.10
2022-09-26T07:17:02.434Z,10.90
2022-09-26T07:19:44.280Z,8.93
2022-09-26T07:22:30.703Z,7.15
2022-09-26T07:24:57.990Z,8.38
2022-09-26T07:27:25.118Z,8.52
2022-09-26T07:29:51.639Z,8.80
2022-09-26T07:32:22.190Z,12.32
2022-09-26T07:35:03.503Z,8.23
2022-09-26T07:37:31.736Z,6.80
2022-09-26T07:40:01.632Z,6.72
2022-09-26T07:42:30.418Z,8.45
2022-09-26T07:48:02.271Z,9.93
2022-09-26T07:50:59.999Z,10.27
2022-09-26T07:53:42.721Z,8.77
2022-09-26T07:56:27.558Z,11.48
2022-09-26T07:59:12.564Z,8.70
2022-09-26T08:01:57.678Z,15.20
2022-09-26T08:04:33.595Z,10.02
2022-09-26T08:07:01.447Z,9.25
2022-09-26T08:09:28.464Z,11.27
2022-09-26T08:12:14.743Z,12.32
2022-09-26T08:15:10.578Z,8.05
2022-09-26T08:17:45.969Z,9.35
2022-09-26T08:20:12.737Z,11.05
2022-09-26T08:22:39.236Z,9.88
2022-09-26T08:25:07.155Z,9.02
2022-09-26T08:27:50.431Z,9.57
2022-09-26T08:30:17.877Z,10.63
2022-09-26T08:32:52.867Z,11.73
2022-09-26T08:35:19.474Z,9.95
2022-09-26T08:38:09.312Z,8.07
2022-09-26T08:40:46.624Z,14.35
2022-09-26T08:43:58.465Z,9.73
2022-09-26T08:47:04.710Z,13.43
2022-09-26T08:50:25.596Z,9.75
2022-09-26T08:55:46.767Z,7.82
2022-09-26T08:58:23.186Z,6.38
2022-09-26T09:00:58.392Z,6.90
2022-09-26T09:03:34.636Z,7.60
2022-09-26T09:06:13.602Z,7.38
2022-09-26T09:08:44.617Z,8.13
2022-09-26T09:11:34.394Z,6.97
2022-09-26T09:14:23.375Z,9.32
2022-09-26T09:17:08.158Z,9.43
2022-09-26T09:20:02.416Z,9.18
2022-09-26T09:22:44.785Z,9.02
2022-09-26T09:25:23.769Z,11.23
2022-09-26T09:28:26.276Z,7.68
2022-09-26T09:31:04.467Z,10.27
2022-09-26T09:33:52.510Z,11.23
2022-09-26T09:36:32.393Z,11.25
2022-09-26T09:39:18.613Z,12.93
2022-09-26T09:41:57.183Z,10.70
2022-09-26T09:44:46.812Z,10.85
2022-09-26T09:47:15.901Z,13.02
2022-09-26T09:49:43.795Z,8.73
2022-09-26T09:52:21.727Z,9.70
2022-09-26T09:55:21.570Z,10.55
2022-09-26T09:57:49.043Z,13.35
2022-09-26T10:00:17.700Z,9.27
2022-09-26T10:03:09.802Z,11.70
2022-09-26T10:05:44.067Z,14.07
2022-09-26T10:08:18.150Z,9.70
2022-09-26T10:11:41.696Z,12.57
2022-09-26T10:14:30.795Z,11.38
2022-09-26T10:17:08.875Z,9.88
2022-09-26T10:19:43.346Z,10.18
2022-09-26T10:22:15.298Z,11.50
2022-09-26T10:24:42.052Z,9.70
2022-09-26T10:27:22.431Z,10.27
2022-09-26T10:29:56.814Z,10.52
2022-09-26T10:32:23.464Z,10.80
2022-09-26T10:35:19.716Z,11.13
2022-09-26T10:37:58.662Z,9.43
2022-09-26T10:40:46.946Z,10.05
2022-09-26T10:43:31.807Z,11.15
2022-09-26T10:46:24.285Z,9.23
2022-09-26T10:49:13.054Z,10.63
2022-09-26T10:52:18.816Z,8.70
2022-09-26T10:55:00.099Z,13.65
2022-09-26T10:57:33.599Z,7.93
2022-09-26T11:00:06.438Z,7.53
2022-09-26T11:02:33.198Z,8.55
2022-09-26T11:05:19.489Z,9.00
2022-09-26T11:07:57.982Z,11.82
2022-09-26T11:10:45.653Z,7.70
2022-09-26T11:13:20.638Z,7.50
2022-09-26T11:16:09.571Z,11.82
2022-09-26T11:18:59.339Z,10.68
2022-09-26T11:21:37.953Z,10.80
2022-09-26T11:24:22.706Z,9.32
2022-09-26T11:27:14.457Z,9.85
2022-09-26T11:29:55.467Z,11.35
2022-09-26T11:32:28.847Z,10.98
2022-09-26T11:35:33.514Z,9.85
2022-09-26T11:38:09.633Z,11.50
2022-09-26T11:40:55.018Z,8.38
2022-09-26T11:44:20.177Z,11.73
2022-09-26T11:47:36.772Z,9.07
2022-09-26T11:50:25.471Z,9.30
2022-09-26T11:53:24.992Z,8.95
2022-09-26T11:56:06.542Z,13.45
2022-09-26T11:58:52.489Z,10.95
2022-09-26T12:01:47.055Z,11.75
2022-09-26T12:04:49.794Z,11.45
2022-09-26T12:07:37.863Z,10.02
2022-09-26T12:10:39.555Z,13.05
2022-09-26T12:13:22.392Z,7.38
2022-09-26T12:16:09.493Z,8.60
2022-09-26T12:18:38.994Z,10.68
2022-09-26T12:21:38.454Z,8.18
2022-09-26T12:24:15.906Z,10.90
2022-09-26T12:26:55.070Z,6.80
2022-09-26T12:29:42.243Z,5.53
2022-09-26T12:32:27.349Z,7.97
2022-09-26T12:35:18.739Z,7.45
2022-09-26T12:38:10.086Z,6.07
2022-09-26T12:40:53.961Z,10.35
2022-09-26T12:46:06.062Z,7.22
2022-09-26T12:48:46.780Z,6.05
2022-09-26T12:51:28.618Z,7.60
2022-09-26T12:54:07.268Z,5.20
2022-09-26T12:56:47.239Z,5.95
2022-09-26T12:59:35.298Z,4.53
2022-09-26T13:02:22.495Z,3.83
2022-09-26T13:05:01.053Z,5.93
2022-09-26T13:07:42.702Z,4.90
2022-09-26T13:10:12.060Z,5.28
2022-09-26T13:13:07.065Z,3.97
2022-09-26T13:16:04.672Z,4.47
2022-09-26T13:18:37.521Z,4.78
2022-09-26T13:21:09.986Z,5.40
2022-09-26T13:23:40.969Z,4.22
2022-09-26T13:26:14.441Z,4.95
2022-09-26T13:29:16.709Z,5.55
2022-09-26T13:31:47.385Z,5.82
2022-09-26T13:34:18.381Z,4.78
2022-09-26T13:36:45.753Z,4.95
2022-09-26T13:39:35.459Z,5.70
2022-09-26T13:43:23.332Z,5.00
2022-09-26T13:46:00.473Z,5.18
2022-09-26T13:48:40.057Z,5.13
2022-09-26T13:51:19.801Z,5.97
2022-09-26T13:53:55.899Z,4.45
2022-09-26T13:56:48.406Z,5.70
2022-09-26T13:59:15.517Z,6.78
2022-09-26T14:02:13.491Z,3.60
2022-09-26T14:04:39.962Z,3.15
2022-09-26T14:07:26.268Z,5.45
2022-09-26T14:09:58.955Z,2.90
2022-09-26T14:12:51.194Z,4.53
2022-09-26T14:15:28.747Z,3.35
2022-09-26T14:18:05.571Z,4.80
2022-09-26T14:20:38.642Z,3.55
2022-09-26T14:23:05.169Z,5.50
2022-09-26T14:25:47.420Z,3.47
2022-09-26T14:28:38.006Z,4.35
2022-09-26T14:31:34.054Z,2.97
2022-09-26T14:34:20.457Z,2.95
2022-09-26T14:36:47.850Z,2.55
2022-09-26T14:39:32.162Z,2.42
2022-09-26T14:42:06.491Z,4.00
2022-09-26T14:44:37.040Z,6.97
2022-09-26T14:47:06.291Z,2.92
2022-09-26T14:49:32.868Z,3.38
2022-09-26T14:52:00.699Z,3.13
2022-09-26T14:54:38.772Z,4.55
2022-09-26T14:57:08.138Z,5.55
2022-09-26T14:59:34.504Z,4.22
2022-09-26T15:02:13.402Z,3.97
2022-09-26T15:04:42.042Z,4.78
2022-09-26T15:07:17.761Z,3.80
2022-09-26T15:10:00.170Z,11.70
2022-09-26T15:12:42.696Z,5.20
2022-09-26T15:15:41.648Z,5.30
2022-09-26T15:18:15.899Z,5.82
2022-09-26T15:20:47.739Z,6.85
2022-09-26T15:23:22.248Z,9.90
2022-09-26T15:25:49.500Z,3.80
2022-09-26T15:28:16.089Z,7.97
2022-09-26T15:30:42.721Z,4.80
2022-09-26T15:33:16.836Z,6.18
2022-09-26T15:35:52.814Z,8.30
2022-09-26T15:38:19.357Z,6.03
2022-09-26T15:41:00.090Z,4.63
2022-09-26T15:43:26.638Z,5.97
2022-09-26T15:45:58.250Z,6.72
2022-09-26T15:48:24.882Z,3.90
2022-09-26T15:50:56.770Z,6.70
2022-09-26T15:53:36.198Z,6.35
2022-09-26T15:56:15.295Z,4.03
2022-09-26T15:58:51.793Z,5.15
2022-09-26T16:01:20.422Z,6.70
2022-09-26T16:03:55.044Z,6.82
2022-09-26T16:06:34.030Z,6.43
2022-09-26T16:09:09.611Z,5.05
2022-09-26T16:11:50.065Z,4.95
2022-09-26T16:14:25.502Z,4.78
2022-09-26T16:16:54.613Z,4.35
2022-09-26T16:19:35.313Z,4.00
2022-09-26T16:22:22.509Z,5.10
2022-09-26T16:24:49.867Z,5.03
2022-09-26T16:27:23.977Z,6.70
2022-09-26T16:29:52.239Z,3.78
2022-09-26T16:32:20.879Z,48.13
2022-09-26T16:34:48.856Z,8.63
2022-09-26T16:37:19.884Z,5.40
2022-09-26T16:39:58.916Z,6.20
2022-09-26T16:42:31.122Z,4.63
2022-09-26T16:44:57.930Z,4.53
2022-09-26T16:47:43.654Z,4.75
2022-09-26T16:50:28.987Z,6.85
2022-09-26T16:52:55.942Z,6.10
2022-09-26T16:55:23.092Z,6.90
2022-09-26T16:57:53.208Z,139.63
2022-09-26T17:00:40.841Z,58.97
2022-09-26T17:03:26.412Z,9.65
2022-09-26T17:05:58.016Z,6.82
2022-09-26T17:08:26.378Z,13.77
2022-09-26T17:10:53.608Z,8.13
2022-09-26T17:13:25.510Z,12.70
2022-09-26T17:15:55.716Z,9.30
2022-09-26T17:18:28.899Z,8.07
2022-09-26T17:20:56.364Z,9.50
2022-09-26T17:23:39.248Z,7.75
2022-09-26T17:26:07.721Z,7.35
2022-09-26T17:28:40.234Z,6.63
2022-09-26T17:31:08.352Z,10.68
2022-09-26T17:33:40.278Z,8.38
2022-09-26T17:36:10.699Z,11.95
2022-09-26T17:38:41.059Z,7.38
2022-09-26T17:41:12.351Z,8.90
2022-09-26T17:43:38.855Z,11.93
2022-09-26T17:46:06.304Z,7.55
2022-09-26T17:48:33.095Z,7.35
2022-09-26T17:51:02.070Z,8.68
2022-09-26T17:53:36.918Z,7.38
2022-09-26T17:56:06.358Z,7.60
2022-09-26T17:58:34.294Z,6.53
2022-09-26T18:01:03.510Z,10.07
2022-09-26T18:03:33.002Z,7.20
2022-09-26T18:06:00.053Z,7.75
2022-09-26T18:08:32.831Z,9.85
2022-09-26T18:11:01.891Z,7.37
2022-09-26T18:13:31.380Z,7.72
2022-09-26T18:16:01.304Z,5.93
2022-09-26T18:18:29.347Z,13.68
2022-09-26T18:20:57.267Z,195.68
2022-09-26T18:23:27.671Z,570.47
2022-09-26T18:25:55.982Z,430.42
2022-09-26T18:28:23.425Z,132.50
2022-09-26T18:30:57.819Z,395.58
2022-09-26T18:33:27.649Z,165.60
2022-09-26T18:35:54.390Z,54.53
2022-09-26T18:38:22.010Z,18.38
2022-09-26T18:40:55.403Z,12.93
2022-09-26T18:43:23.558Z,20.55
2022-09-26T18:45:50.124Z,26.83
2022-09-26T18:48:29.270Z,32.20
2022-09-26T18:50:57.536Z,15.48
2022-09-26T18:53:26.943Z,15.68
2022-09-26T18:56:12.059Z,11.57
2022-09-26T18:58:39.144Z,12.07
2022-09-26T19:01:07.777Z,10.48
2022-09-26T19:03:36.446Z,9.95
2022-09-26T19:06:12.488Z,10.75
2022-09-26T19:08:41.168Z,14.18
2022-09-26T19:11:14.814Z,9.38
2022-09-26T19:13:42.533Z,11.30
2022-09-26T19:16:09.470Z,9.95
2022-09-26T19:18:36.534Z,10.95
2022-09-26T19:21:04.643Z,14.60
2022-09-26T19:23:33.076Z,16.15
2022-09-26T19:25:59.683Z,15.20
2022-09-26T19:28:27.950Z,13.95
2022-09-26T19:30:55.257Z,10.73
2022-09-26T19:33:21.895Z,10.90
2022-09-26T19:35:48.611Z,14.48
2022-09-26T19:38:19.611Z,15.85
2022-09-26T19:40:48.747Z,16.88
2022-09-26T19:43:16.077Z,13.02
2022-09-26T19:45:43.406Z,11.32
2022-09-26T19:48:15.405Z,8.75
2022-09-26T19:50:43.506Z,15.68
2022-09-26T19:53:13.862Z,15.02
2022-09-26T19:55:40.460Z,13.32
2022-09-26T19:58:12.833Z,14.60
2022-09-26T20:00:43.022Z,17.50
2022-09-26T20:03:15.619Z,12.80
2022-09-26T20:05:42.224Z,16.00
2022-09-26T20:08:14.872Z,18.85
2022-09-26T20:10:41.600Z,14.63
2022-09-26T20:13:08.058Z,20.92
2022-09-26T20:15:34.500Z,21.52
2022-09-26T20:18:01.366Z,14.82
2022-09-26T20:20:27.932Z,16.27
2022-09-26T20:22:55.249Z,18.08
2022-09-26T20:25:26.973Z,19.75
2022-09-26T20:27:54.420Z,21.30
2022-09-26T20:30:39.602Z,23.80
2022-09-26T20:33:06.316Z,20.67
2022-09-26T20:35:36.606Z,16.70
2022-09-26T20:38:07.166Z,23.77
2022-09-26T20:40:34.364Z,16.35
2022-09-26T20:43:03.631Z,13.60
2022-09-26T20:45:38.641Z,19.83
2022-09-26T20:48:08.610Z,12.43
2022-09-26T20:50:38.358Z,18.45
2022-09-26T20:53:20.257Z,22.25
2022-09-26T20:55:47.150Z,13.50
2022-09-26T20:58:13.664Z,20.83
2022-09-26T21:00:43.570Z,17.08
2022-09-26T21:03:11.191Z,17.15
2022-09-26T21:05:37.954Z,14.23
2022-09-26T21:08:10.383Z,15.90
2022-09-26T21:10:36.854Z,12.30
2022-09-26T21:13:03.416Z,14.20
2022-09-26T21:15:31.205Z,17.10
2022-09-26T21:17:58.206Z,14.38
2022-09-26T21:20:26.893Z,12.80
2022-09-26T21:23:28.479Z,16.65
2022-09-26T21:25:54.928Z,14.35
2022-09-26T21:28:26.515Z,17.98
2022-09-26T21:30:58.481Z,13.80
2022-09-26T21:33:25.176Z,13.55
2022-09-26T21:35:51.636Z,15.70
2022-09-26T21:38:19.319Z,16.85
2022-09-26T21:40:48.786Z,15.77
2022-09-26T21:43:17.686Z,14.52
2022-09-26T21:45:45.160Z,14.25
2022-09-26T21:48:13.105Z,13.45
2022-09-26T21:50:42.316Z,16.80
2022-09-26T21:53:16.410Z,12.50
2022-09-26T21:55:44.911Z,14.45
2022-09-26T21:58:15.501Z,12.73
2022-09-26T22:00:42.033Z,15.82
2022-09-26T22:03:08.515Z,11.38
2022-09-26T22:05:35.002Z,12.07
2022-09-26T22:08:01.875Z,13.02
2022-09-26T22:10:29.227Z,11.75
2022-09-26T22:12:55.996Z,16.10
2022-09-26T22:15:22.567Z,14.65
2022-09-26T22:17:49.035Z,12.13
2022-09-26T22:20:15.833Z,12.23
2022-09-26T22:22:42.386Z,14.73
2022-09-26T22:25:09.174Z,11.90
2022-09-26T22:27:36.203Z,12.45
2022-09-26T22:30:03.764Z,12.35
2022-09-26T22:32:30.283Z,16.42
2022-09-26T22:34:56.738Z,14.10
2022-09-26T22:37:23.439Z,12.60
2022-09-26T22:39:50.791Z,10.63
2022-09-26T22:42:17.338Z,12.45
2022-09-26T22:44:43.809Z,14.90
2022-09-26T22:47:10.287Z,14.88
2022-09-26T22:49:36.876Z,13.18
2022-09-26T22:52:03.397Z,16.88
2022-09-26T22:54:29.975Z,17.27
2022-09-26T22:56:56.569Z,13.35
2022-09-26T22:59:23.065Z,17.65
2022-09-26T23:01:51.573Z,16.27
2022-09-26T23:04:18.300Z,9.45
2022-09-26T23:06:44.817Z,14.88
2022-09-26T23:09:11.337Z,11.02
2022-09-26T23:11:37.817Z,13.13
2022-09-26T23:14:04.411Z,10.80
2022-09-26T23:16:30.942Z,11.10
2022-09-26T23:18:58.936Z,20.83
2022-09-26T23:21:26.790Z,12.10
2022-09-26T23:23:55.080Z,18.45
2022-09-26T23:26:24.269Z,13.05
2022-09-26T23:28:51.701Z,11.32
2022-09-26T23:31:18.718Z,9.52
2022-09-26T23:33:45.470Z,9.77
2022-09-26T23:36:12.289Z,12.52
2022-09-26T23:38:39.980Z,11.05
2022-09-26T23:41:07.745Z,12.43
2022-09-26T23:43:34.242Z,10.75
2022-09-26T23:46:00.904Z,13.82
2022-09-26T23:48:27.565Z,10.15
2022-09-26T23:50:54.385Z,10.05
2022-09-26T23:53:20.946Z,12.38
2022-09-26T23:55:47.523Z,6.63
2022-09-26T23:58:14.332Z,7.82
